sensor_id;sensor_type;location;lat;lon;timestamp;P1;durP1;ratioP1;P2;durP2;ratioP2
57832;SDS011;43667;53.036;6.740;2023-01-29T00:01:05;16.25;;;11.82;;
57832;SDS011;43667;53.036;6.740;2023-01-29T00:03:31;14.57;;;11.88;;
57832;SDS011;43667;53.036;6.740;2023-01-29T00:05:58;17.02;;;12.57;;
57832;SDS011;43667;53.036;6.740;2023-01-29T00:08:24;17.23;;;11.73;;
57832;SDS011;43667;53.036;6.740;2023-01-29T00:10:50;18.60;;;12.40;;
57832;SDS011;43667;53.036;6.740;2023-01-29T00:13:16;19.17;;;13.10;;
57832;SDS011;43667;53.036;6.740;2023-01-29T00:15:41;20.80;;;12.98;;
57832;SDS011;43667;53.036;6.740;2023-01-29T00:18:07;20.02;;;12.82;;
57832;SDS011;43667;53.036;6.740;2023-01-29T00:20:32;16.60;;;12.82;;
57832;SDS011;43667;53.036;6.740;2023-01-29T00:22:58;18.77;;;12.43;;
57832;SDS011;43667;53.036;6.740;2023-01-29T00:25:24;20.35;;;13.68;;
57832;SDS011;43667;53.036;6.740;2023-01-29T00:27:50;21.20;;;14.40;;
57832;SDS011;43667;53.036;6.740;2023-01-29T00:30:15;17.42;;;13.48;;
57832;SDS011;43667;53.036;6.740;2023-01-29T00:32:43;17.95;;;13.95;;
57832;SDS011;43667;53.036;6.740;2023-01-29T00:35:10;18.17;;;13.18;;
57832;SDS011;43667;53.036;6.740;2023-01-29T00:37:35;19.85;;;13.98;;
57832;SDS011;43667;53.036;6.740;2023-01-29T00:40:02;17.52;;;14.38;;
57832;SDS011;43667;53.036;6.740;2023-01-29T00:42:28;19.05;;;14.35;;
57832;SDS011;43667;53.036;6.740;2023-01-29T00:45:12;21.15;;;14.45;;
57832;SDS011;43667;53.036;6.740;2023-01-29T00:47:38;21.35;;;15.68;;
57832;SDS011;43667;53.036;6.740;2023-01-29T00:50:05;21.08;;;15.45;;
57832;SDS011;43667;53.036;6.740;2023-01-29T00:52:32;19.92;;;15.05;;
57832;SDS011;43667;53.036;6.740;2023-01-29T00:55:00;20.05;;;15.25;;
57832;SDS011;43667;53.036;6.740;2023-01-29T00:57:28;23.23;;;14.00;;
57832;SDS011;43667;53.036;6.740;2023-01-29T00:59:55;19.45;;;14.73;;
57832;SDS011;43667;53.036;6.740;2023-01-29T01:02:32;20.67;;;15.23;;
57832;SDS011;43667;53.036;6.740;2023-01-29T01:05:17;22.08;;;15.73;;
57832;SDS011;43667;53.036;6.740;2023-01-29T01:07:44;19.98;;;15.35;;
57832;SDS011;43667;53.036;6.740;2023-01-29T01:10:18;21.75;;;15.82;;
57832;SDS011;43667;53.036;6.740;2023-01-29T01:12:50;21.77;;;15.85;;
57832;SDS011;43667;53.036;6.740;2023-01-29T01:15:37;18.90;;;15.18;;
57832;SDS011;43667;53.036;6.740;2023-01-29T01:18:03;21.77;;;17.05;;
57832;SDS011;43667;53.036;6.740;2023-01-29T01:20:31;26.73;;;17.08;;
57832;SDS011;43667;53.036;6.740;2023-01-29T01:22:58;25.70;;;16.98;;
57832;SDS011;43667;53.036;6.740;2023-01-29T01:25:24;24.08;;;16.70;;
57832;SDS011;43667;53.036;6.740;2023-01-29T01:27:54;21.45;;;17.00;;
57832;SDS011;43667;53.036;6.740;2023-01-29T01:30:21;24.58;;;17.90;;
57832;SDS011;43667;53.036;6.740;2023-01-29T02:28:56;29.52;;;22.17;;
57832;SDS011;43667;53.036;6.740;2023-01-29T02:31:54;29.73;;;23.15;;
57832;SDS011;43667;53.036;6.740;2023-01-29T02:34:46;29.50;;;22.92;;
57832;SDS011;43667;53.036;6.740;2023-01-29T02:37:38;30.55;;;23.48;;
57832;SDS011;43667;53.036;6.740;2023-01-29T02:40:12;32.08;;;23.52;;
57832;SDS011;43667;53.036;6.740;2023-01-29T02:48:54;29.17;;;23.33;;
57832;SDS011;43667;53.036;6.740;2023-01-29T02:51:33;31.70;;;24.15;;
57832;SDS011;43667;53.036;6.740;2023-01-29T02:56:58;30.20;;;23.23;;
57832;SDS011;43667;53.036;6.740;2023-01-29T02:59:44;28.60;;;22.73;;
57832;SDS011;43667;53.036;6.740;2023-01-29T03:02:15;32.08;;;23.15;;
57832;SDS011;43667;53.036;6.740;2023-01-29T03:04:46;27.45;;;22.02;;
57832;SDS011;43667;53.036;6.740;2023-01-29T03:07:21;33.42;;;22.95;;
57832;SDS011;43667;53.036;6.740;2023-01-29T03:10:12;31.30;;;22.38;;
57832;SDS011;43667;53.036;6.740;2023-01-29T03:12:45;31.92;;;22.75;;
57832;SDS011;43667;53.036;6.740;2023-01-29T03:15:24;29.40;;;21.88;;
57832;SDS011;43667;53.036;6.740;2023-01-29T03:17:55;25.25;;;21.33;;
57832;SDS011;43667;53.036;6.740;2023-01-29T03:20:39;31.60;;;22.80;;
57832;SDS011;43667;53.036;6.740;2023-01-29T03:23:21;33.72;;;22.27;;
57832;SDS011;43667;53.036;6.740;2023-01-29T03:26:15;31.17;;;22.42;;
57832;SDS011;43667;53.036;6.740;2023-01-29T03:29:03;30.63;;;20.70;;
57832;SDS011;43667;53.036;6.740;2023-01-29T03:31:48;29.10;;;22.50;;
57832;SDS011;43667;53.036;6.740;2023-01-29T03:34:31;29.35;;;20.70;;
57832;SDS011;43667;53.036;6.740;2023-01-29T03:37:17;26.20;;;21.35;;
57832;SDS011;43667;53.036;6.740;2023-01-29T03:39:49;27.80;;;20.65;;
57832;SDS011;43667;53.036;6.740;2023-01-29T03:42:28;27.17;;;20.40;;
57832;SDS011;43667;53.036;6.740;2023-01-29T03:47:51;29.40;;;21.98;;
57832;SDS011;43667;53.036;6.740;2023-01-29T03:50:31;28.05;;;20.92;;
57832;SDS011;43667;53.036;6.740;2023-01-29T03:58:48;25.75;;;20.73;;
57832;SDS011;43667;53.036;6.740;2023-01-29T04:01:25;25.95;;;20.33;;
57832;SDS011;43667;53.036;6.740;2023-01-29T04:06:30;26.35;;;19.60;;
57832;SDS011;43667;53.036;6.740;2023-01-29T04:09:06;26.45;;;20.05;;
57832;SDS011;43667;53.036;6.740;2023-01-29T04:11:40;26.95;;;20.20;;
57832;SDS011;43667;53.036;6.740;2023-01-29T04:14:09;29.23;;;21.88;;
57832;SDS011;43667;53.036;6.740;2023-01-29T04:16:36;26.85;;;20.55;;
57832;SDS011;43667;53.036;6.740;2023-01-29T04:19:05;25.85;;;20.25;;
57832;SDS011;43667;53.036;6.740;2023-01-29T04:21:32;26.58;;;20.90;;
57832;SDS011;43667;53.036;6.740;2023-01-29T04:24:01;25.33;;;19.77;;
57832;SDS011;43667;53.036;6.740;2023-01-29T04:32:13;24.95;;;19.65;;
57832;SDS011;43667;53.036;6.740;2023-01-29T04:40:25;24.00;;;20.10;;
57832;SDS011;43667;53.036;6.740;2023-01-29T04:43:33;25.25;;;20.10;;
57832;SDS011;43667;53.036;6.740;2023-01-29T04:46:18;29.20;;;20.83;;
57832;SDS011;43667;53.036;6.740;2023-01-29T04:48:59;27.13;;;19.83;;
57832;SDS011;43667;53.036;6.740;2023-01-29T04:51:59;28.27;;;20.58;;
57832;SDS011;43667;53.036;6.740;2023-01-29T04:57:15;27.90;;;21.30;;
57832;SDS011;43667;53.036;6.740;2023-01-29T04:59:47;26.20;;;20.35;;
57832;SDS011;43667;53.036;6.740;2023-01-29T05:02:21;24.10;;;19.85;;
57832;SDS011;43667;53.036;6.740;2023-01-29T05:04:48;26.50;;;19.73;;
57832;SDS011;43667;53.036;6.740;2023-01-29T05:07:15;25.15;;;19.67;;
57832;SDS011;43667;53.036;6.740;2023-01-29T05:09:43;24.05;;;19.77;;
57832;SDS011;43667;53.036;6.740;2023-01-29T05:12:10;25.65;;;20.42;;
57832;SDS011;43667;53.036;6.740;2023-01-29T05:14:38;25.08;;;19.70;;
57832;SDS011;43667;53.036;6.740;2023-01-29T05:17:07;26.67;;;20.58;;
57832;SDS011;43667;53.036;6.740;2023-01-29T05:19:36;26.98;;;20.55;;
57832;SDS011;43667;53.036;6.740;2023-01-29T05:22:03;26.00;;;21.70;;
57832;SDS011;43667;53.036;6.740;2023-01-29T05:24:30;27.33;;;21.83;;
57832;SDS011;43667;53.036;6.740;2023-01-29T05:26:55;31.02;;;21.52;;
57832;SDS011;43667;53.036;6.740;2023-01-29T05:29:41;28.35;;;21.60;;
57832;SDS011;43667;53.036;6.740;2023-01-29T05:32:10;31.20;;;21.08;;
57832;SDS011;43667;53.036;6.740;2023-01-29T05:34:36;27.15;;;21.92;;
57832;SDS011;43667;53.036;6.740;2023-01-29T05:37:01;28.00;;;22.30;;
57832;SDS011;43667;53.036;6.740;2023-01-29T05:39:27;27.38;;;22.85;;
57832;SDS011;43667;53.036;6.740;2023-01-29T05:41:52;30.00;;;23.55;;
57832;SDS011;43667;53.036;6.740;2023-01-29T05:44:18;29.98;;;23.67;;
57832;SDS011;43667;53.036;6.740;2023-01-29T05:46:44;31.10;;;24.08;;
57832;SDS011;43667;53.036;6.740;2023-01-29T05:49:10;31.13;;;24.30;;
57832;SDS011;43667;53.036;6.740;2023-01-29T05:51:36;29.70;;;24.13;;
57832;SDS011;43667;53.036;6.740;2023-01-29T05:54:01;31.85;;;24.45;;
57832;SDS011;43667;53.036;6.740;2023-01-29T05:56:27;29.73;;;24.35;;
57832;SDS011;43667;53.036;6.740;2023-01-29T05:58:53;30.98;;;24.35;;
57832;SDS011;43667;53.036;6.740;2023-01-29T06:01:20;34.80;;;24.15;;
57832;SDS011;43667;53.036;6.740;2023-01-29T06:03:47;31.63;;;24.73;;
57832;SDS011;43667;53.036;6.740;2023-01-29T06:06:13;30.05;;;23.85;;
57832;SDS011;43667;53.036;6.740;2023-01-29T06:08:39;29.20;;;23.42;;
57832;SDS011;43667;53.036;6.740;2023-01-29T06:11:09;31.42;;;24.33;;
57832;SDS011;43667;53.036;6.740;2023-01-29T06:13:36;28.45;;;23.60;;
57832;SDS011;43667;53.036;6.740;2023-01-29T06:16:06;27.08;;;23.55;;
57832;SDS011;43667;53.036;6.740;2023-01-29T06:18:32;29.77;;;24.40;;
57832;SDS011;43667;53.036;6.740;2023-01-29T06:21:01;29.73;;;25.17;;
57832;SDS011;43667;53.036;6.740;2023-01-29T06:23:28;31.63;;;24.58;;
57832;SDS011;43667;53.036;6.740;2023-01-29T06:25:58;30.15;;;25.13;;
57832;SDS011;43667;53.036;6.740;2023-01-29T06:28:24;29.02;;;23.85;;
57832;SDS011;43667;53.036;6.740;2023-01-29T06:30:50;29.63;;;24.35;;
57832;SDS011;43667;53.036;6.740;2023-01-29T06:33:16;28.15;;;24.27;;
57832;SDS011;43667;53.036;6.740;2023-01-29T06:35:41;31.85;;;24.98;;
57832;SDS011;43667;53.036;6.740;2023-01-29T06:38:07;31.45;;;24.10;;
57832;SDS011;43667;53.036;6.740;2023-01-29T06:40:32;28.17;;;24.40;;
57832;SDS011;43667;53.036;6.740;2023-01-29T06:43:01;30.92;;;24.90;;
57832;SDS011;43667;53.036;6.740;2023-01-29T06:45:26;30.20;;;24.02;;
57832;SDS011;43667;53.036;6.740;2023-01-29T06:47:52;29.67;;;23.85;;
57832;SDS011;43667;53.036;6.740;2023-01-29T06:50:17;34.92;;;25.45;;
57832;SDS011;43667;53.036;6.740;2023-01-29T06:52:43;28.92;;;24.33;;
57832;SDS011;43667;53.036;6.740;2023-01-29T06:55:09;30.08;;;24.27;;
57832;SDS011;43667;53.036;6.740;2023-01-29T06:57:34;27.23;;;23.45;;
57832;SDS011;43667;53.036;6.740;2023-01-29T07:00:00;29.75;;;25.65;;
57832;SDS011;43667;53.036;6.740;2023-01-29T07:02:25;28.08;;;23.23;;
57832;SDS011;43667;53.036;6.740;2023-01-29T07:04:51;30.05;;;25.70;;
57832;SDS011;43667;53.036;6.740;2023-01-29T07:07:17;30.23;;;24.33;;
57832;SDS011;43667;53.036;6.740;2023-01-29T07:09:42;27.88;;;24.27;;
57832;SDS011;43667;53.036;6.740;2023-01-29T07:12:08;31.90;;;24.33;;
57832;SDS011;43667;53.036;6.740;2023-01-29T07:14:34;30.60;;;24.85;;
57832;SDS011;43667;53.036;6.740;2023-01-29T07:17:00;29.17;;;24.45;;
57832;SDS011;43667;53.036;6.740;2023-01-29T07:19:26;28.98;;;25.25;;
57832;SDS011;43667;53.036;6.740;2023-01-29T07:21:51;29.15;;;25.08;;
57832;SDS011;43667;53.036;6.740;2023-01-29T07:24:17;28.75;;;25.52;;
57832;SDS011;43667;53.036;6.740;2023-01-29T07:26:43;26.83;;;23.85;;
57832;SDS011;43667;53.036;6.740;2023-01-29T07:29:09;32.10;;;24.92;;
57832;SDS011;43667;53.036;6.740;2023-01-29T07:31:34;29.10;;;25.17;;
57832;SDS011;43667;53.036;6.740;2023-01-29T07:34:00;29.35;;;25.02;;
57832;SDS011;43667;53.036;6.740;2023-01-29T07:36:26;30.63;;;25.58;;
57832;SDS011;43667;53.036;6.740;2023-01-29T07:38:52;29.50;;;24.63;;
57832;SDS011;43667;53.036;6.740;2023-01-29T07:41:17;29.90;;;25.33;;
57832;SDS011;43667;53.036;6.740;2023-01-29T07:43:43;34.90;;;26.33;;
57832;SDS011;43667;53.036;6.740;2023-01-29T07:46:09;32.92;;;26.38;;
57832;SDS011;43667;53.036;6.740;2023-01-29T07:48:34;29.92;;;26.23;;
57832;SDS011;43667;53.036;6.740;2023-01-29T07:51:00;31.15;;;27.80;;
57832;SDS011;43667;53.036;6.740;2023-01-29T07:53:26;33.97;;;26.42;;
57832;SDS011;43667;53.036;6.740;2023-01-29T07:55:52;31.83;;;27.20;;
57832;SDS011;43667;53.036;6.740;2023-01-29T07:58:18;34.15;;;27.33;;
57832;SDS011;43667;53.036;6.740;2023-01-29T08:00:44;32.03;;;27.27;;
57832;SDS011;43667;53.036;6.740;2023-01-29T08:03:10;33.42;;;27.85;;
57832;SDS011;43667;53.036;6.740;2023-01-29T08:05:38;34.33;;;28.05;;
57832;SDS011;43667;53.036;6.740;2023-01-29T08:08:03;31.27;;;27.88;;
57832;SDS011;43667;53.036;6.740;2023-01-29T08:10:29;33.83;;;28.02;;
57832;SDS011;43667;53.036;6.740;2023-01-29T08:12:56;35.90;;;27.85;;
57832;SDS011;43667;53.036;6.740;2023-01-29T08:15:23;32.20;;;27.42;;
57832;SDS011;43667;53.036;6.740;2023-01-29T08:17:49;36.70;;;28.55;;
57832;SDS011;43667;53.036;6.740;2023-01-29T08:20:15;33.22;;;27.98;;
57832;SDS011;43667;53.036;6.740;2023-01-29T08:22:41;36.75;;;27.67;;
57832;SDS011;43667;53.036;6.740;2023-01-29T08:25:07;35.92;;;29.05;;
57832;SDS011;43667;53.036;6.740;2023-01-29T08:27:32;36.83;;;27.70;;
57832;SDS011;43667;53.036;6.740;2023-01-29T08:29:58;32.03;;;26.55;;
57832;SDS011;43667;53.036;6.740;2023-01-29T08:32:24;32.80;;;27.55;;
57832;SDS011;43667;53.036;6.740;2023-01-29T08:34:50;34.45;;;27.27;;
57832;SDS011;43667;53.036;6.740;2023-01-29T08:37:16;38.33;;;29.10;;
57832;SDS011;43667;53.036;6.740;2023-01-29T08:39:42;35.10;;;27.58;;
57832;SDS011;43667;53.036;6.740;2023-01-29T08:42:07;33.95;;;26.73;;
57832;SDS011;43667;53.036;6.740;2023-01-29T08:44:33;34.05;;;27.08;;
57832;SDS011;43667;53.036;6.740;2023-01-29T08:46:58;35.50;;;28.20;;
57832;SDS011;43667;53.036;6.740;2023-01-29T08:49:24;35.72;;;28.63;;
57832;SDS011;43667;53.036;6.740;2023-01-29T08:51:49;34.70;;;27.73;;
57832;SDS011;43667;53.036;6.740;2023-01-29T08:54:15;36.80;;;27.90;;
57832;SDS011;43667;53.036;6.740;2023-01-29T08:56:41;36.00;;;27.27;;
57832;SDS011;43667;53.036;6.740;2023-01-29T08:59:08;37.33;;;28.38;;
57832;SDS011;43667;53.036;6.740;2023-01-29T09:01:34;36.22;;;27.60;;
57832;SDS011;43667;53.036;6.740;2023-01-29T09:04:00;32.78;;;27.05;;
57832;SDS011;43667;53.036;6.740;2023-01-29T09:06:28;35.65;;;28.20;;
57832;SDS011;43667;53.036;6.740;2023-01-29T09:08:53;35.75;;;28.17;;
57832;SDS011;43667;53.036;6.740;2023-01-29T09:11:19;36.63;;;28.17;;
57832;SDS011;43667;53.036;6.740;2023-01-29T09:13:44;38.25;;;28.73;;
57832;SDS011;43667;53.036;6.740;2023-01-29T09:16:10;35.03;;;27.65;;
57832;SDS011;43667;53.036;6.740;2023-01-29T09:18:36;34.30;;;27.75;;
57832;SDS011;43667;53.036;6.740;2023-01-29T09:21:01;34.47;;;28.23;;
57832;SDS011;43667;53.036;6.740;2023-01-29T09:23:27;33.50;;;27.90;;
57832;SDS011;43667;53.036;6.740;2023-01-29T09:25:54;35.40;;;28.30;;
57832;SDS011;43667;53.036;6.740;2023-01-29T09:28:23;39.33;;;29.52;;
57832;SDS011;43667;53.036;6.740;2023-01-29T09:30:49;35.47;;;27.80;;
57832;SDS011;43667;53.036;6.740;2023-01-29T09:33:14;37.92;;;28.83;;
57832;SDS011;43667;53.036;6.740;2023-01-29T09:35:40;37.15;;;30.25;;
57832;SDS011;43667;53.036;6.740;2023-01-29T09:38:07;35.78;;;27.60;;
57832;SDS011;43667;53.036;6.740;2023-01-29T09:45:37;36.55;;;27.70;;
57832;SDS011;43667;53.036;6.740;2023-01-29T09:48:10;34.53;;;23.50;;
57832;SDS011;43667;53.036;6.740;2023-01-29T09:50:38;42.90;;;29.02;;
57832;SDS011;43667;53.036;6.740;2023-01-29T09:56:24;39.45;;;28.17;;
57832;SDS011;43667;53.036;6.740;2023-01-29T09:58:52;35.63;;;28.05;;
57832;SDS011;43667;53.036;6.740;2023-01-29T10:10:34;34.55;;;27.30;;
57832;SDS011;43667;53.036;6.740;2023-01-29T10:12:58;34.85;;;28.10;;
57832;SDS011;43667;53.036;6.740;2023-01-29T10:15:54;34.42;;;29.05;;
57832;SDS011;43667;53.036;6.740;2023-01-29T10:18:41;37.38;;;27.45;;
57832;SDS011;43667;53.036;6.740;2023-01-29T10:24:57;37.60;;;28.88;;
57832;SDS011;43667;53.036;6.740;2023-01-29T10:27:29;36.20;;;28.17;;
57832;SDS011;43667;53.036;6.740;2023-01-29T10:29:57;35.55;;;27.63;;
57832;SDS011;43667;53.036;6.740;2023-01-29T10:32:24;38.25;;;29.92;;
57832;SDS011;43667;53.036;6.740;2023-01-29T10:35:16;37.72;;;30.00;;
57832;SDS011;43667;53.036;6.740;2023-01-29T10:37:43;36.75;;;30.52;;
57832;SDS011;43667;53.036;6.740;2023-01-29T10:40:17;37.42;;;28.77;;
57832;SDS011;43667;53.036;6.740;2023-01-29T10:42:45;38.08;;;30.40;;
57832;SDS011;43667;53.036;6.740;2023-01-29T10:45:27;40.30;;;32.25;;
57832;SDS011;43667;53.036;6.740;2023-01-29T11:01:16;38.45;;;30.95;;
57832;SDS011;43667;53.036;6.740;2023-01-29T11:03:41;44.00;;;30.92;;
57832;SDS011;43667;53.036;6.740;2023-01-29T11:06:18;45.38;;;31.25;;
57832;SDS011;43667;53.036;6.740;2023-01-29T11:11:19;42.22;;;31.08;;
57832;SDS011;43667;53.036;6.740;2023-01-29T11:13:53;37.00;;;29.60;;
57832;SDS011;43667;53.036;6.740;2023-01-29T11:18:49;39.53;;;31.38;;
57832;SDS011;43667;53.036;6.740;2023-01-29T11:21:17;45.25;;;33.65;;
57832;SDS011;43667;53.036;6.740;2023-01-29T11:23:43;46.53;;;32.40;;
57832;SDS011;43667;53.036;6.740;2023-01-29T11:26:11;42.20;;;33.30;;
57832;SDS011;43667;53.036;6.740;2023-01-29T11:28:41;46.97;;;33.75;;
57832;SDS011;43667;53.036;6.740;2023-01-29T11:33:51;45.08;;;34.25;;
57832;SDS011;43667;53.036;6.740;2023-01-29T11:36:25;49.78;;;35.70;;
57832;SDS011;43667;53.036;6.740;2023-01-29T11:41:41;52.88;;;35.42;;
57832;SDS011;43667;53.036;6.740;2023-01-29T11:44:19;49.50;;;35.20;;
57832;SDS011;43667;53.036;6.740;2023-01-29T11:46:50;52.20;;;36.55;;
57832;SDS011;43667;53.036;6.740;2023-01-29T11:49:30;49.75;;;36.15;;
57832;SDS011;43667;53.036;6.740;2023-01-29T11:51:58;49.85;;;36.47;;
57832;SDS011;43667;53.036;6.740;2023-01-29T11:54:28;46.28;;;30.30;;
57832;SDS011;43667;53.036;6.740;2023-01-29T11:56:58;48.78;;;35.38;;
57832;SDS011;43667;53.036;6.740;2023-01-29T11:59:29;65.82;;;51.05;;
57832;SDS011;43667;53.036;6.740;2023-01-29T12:02:19;52.38;;;35.97;;
57832;SDS011;43667;53.036;6.740;2023-01-29T12:05:04;49.15;;;36.95;;
57832;SDS011;43667;53.036;6.740;2023-01-29T12:07:40;51.47;;;35.28;;
57832;SDS011;43667;53.036;6.740;2023-01-29T12:10:27;46.53;;;35.65;;
57832;SDS011;43667;53.036;6.740;2023-01-29T12:15:43;44.85;;;34.05;;
57832;SDS011;43667;53.036;6.740;2023-01-29T12:18:29;47.97;;;34.30;;
57832;SDS011;43667;53.036;6.740;2023-01-29T12:21:02;38.58;;;29.58;;
57832;SDS011;43667;53.036;6.740;2023-01-29T12:26:30;42.50;;;31.45;;
57832;SDS011;43667;53.036;6.740;2023-01-29T12:30:01;43.42;;;30.60;;
57832;SDS011;43667;53.036;6.740;2023-01-29T12:34:41;40.70;;;31.08;;
57832;SDS011;43667;53.036;6.740;2023-01-29T12:37:34;39.58;;;30.80;;
57832;SDS011;43667;53.036;6.740;2023-01-29T12:40:18;39.55;;;31.02;;
57832;SDS011;43667;53.036;6.740;2023-01-29T12:42:49;44.08;;;31.20;;
57832;SDS011;43667;53.036;6.740;2023-01-29T12:45:20;39.33;;;30.13;;
57832;SDS011;43667;53.036;6.740;2023-01-29T12:47:48;41.17;;;30.88;;
57832;SDS011;43667;53.036;6.740;2023-01-29T12:50:27;40.20;;;30.85;;
57832;SDS011;43667;53.036;6.740;2023-01-29T12:53:01;37.67;;;30.52;;
57832;SDS011;43667;53.036;6.740;2023-01-29T12:55:47;39.13;;;30.38;;
57832;SDS011;43667;53.036;6.740;2023-01-29T12:58:28;36.60;;;28.25;;
57832;SDS011;43667;53.036;6.740;2023-01-29T13:01:05;40.88;;;28.92;;
57832;SDS011;43667;53.036;6.740;2023-01-29T13:03:47;38.42;;;28.23;;
57832;SDS011;43667;53.036;6.740;2023-01-29T13:06:32;34.75;;;27.42;;
57832;SDS011;43667;53.036;6.740;2023-01-29T13:09:05;36.20;;;26.35;;
57832;SDS011;43667;53.036;6.740;2023-01-29T13:16:43;32.83;;;24.42;;
57832;SDS011;43667;53.036;6.740;2023-01-29T13:21:51;38.20;;;26.08;;
57832;SDS011;43667;53.036;6.740;2023-01-29T13:24:20;31.98;;;25.45;;
57832;SDS011;43667;53.036;6.740;2023-01-29T13:26:48;35.35;;;26.25;;
57832;SDS011;43667;53.036;6.740;2023-01-29T13:29:24;33.78;;;27.23;;
57832;SDS011;43667;53.036;6.740;2023-01-29T13:31:53;30.02;;;24.42;;
57832;SDS011;43667;53.036;6.740;2023-01-29T13:34:24;35.33;;;26.92;;
57832;SDS011;43667;53.036;6.740;2023-01-29T13:37:15;31.50;;;24.73;;
57832;SDS011;43667;53.036;6.740;2023-01-29T13:39:45;33.42;;;25.98;;
57832;SDS011;43667;53.036;6.740;2023-01-29T13:42:24;30.35;;;23.95;;
57832;SDS011;43667;53.036;6.740;2023-01-29T13:45:00;35.00;;;27.77;;
57832;SDS011;43667;53.036;6.740;2023-01-29T13:47:32;34.20;;;27.80;;
57832;SDS011;43667;53.036;6.740;2023-01-29T13:50:08;37.80;;;28.90;;
57832;SDS011;43667;53.036;6.740;2023-01-29T13:52:55;34.22;;;27.75;;
57832;SDS011;43667;53.036;6.740;2023-01-29T13:55:26;32.72;;;26.17;;
57832;SDS011;43667;53.036;6.740;2023-01-29T13:58:05;36.72;;;26.92;;
57832;SDS011;43667;53.036;6.740;2023-01-29T14:07:57;36.70;;;29.25;;
57832;SDS011;43667;53.036;6.740;2023-01-29T14:10:24;40.20;;;29.90;;
57832;SDS011;43667;53.036;6.740;2023-01-29T14:13:18;39.30;;;30.20;;
57832;SDS011;43667;53.036;6.740;2023-01-29T14:18:24;42.10;;;31.50;;
57832;SDS011;43667;53.036;6.740;2023-01-29T14:20:58;39.90;;;31.73;;
57832;SDS011;43667;53.036;6.740;2023-01-29T14:23:32;44.05;;;33.17;;
57832;SDS011;43667;53.036;6.740;2023-01-29T14:26:00;43.25;;;33.22;;
57832;SDS011;43667;53.036;6.740;2023-01-29T14:28:29;44.10;;;34.13;;
57832;SDS011;43667;53.036;6.740;2023-01-29T14:30:57;46.25;;;36.08;;
57832;SDS011;43667;53.036;6.740;2023-01-29T14:33:24;46.45;;;34.60;;
57832;SDS011;43667;53.036;6.740;2023-01-29T14:35:50;54.78;;;37.15;;
57832;SDS011;43667;53.036;6.740;2023-01-29T14:38:20;48.70;;;34.10;;
57832;SDS011;43667;53.036;6.740;2023-01-29T14:40:49;50.88;;;35.40;;
57832;SDS011;43667;53.036;6.740;2023-01-29T14:43:16;47.42;;;34.47;;
57832;SDS011;43667;53.036;6.740;2023-01-29T14:45:45;45.40;;;33.63;;
57832;SDS011;43667;53.036;6.740;2023-01-29T14:51:09;52.25;;;36.15;;
57832;SDS011;43667;53.036;6.740;2023-01-29T14:53:49;54.08;;;37.15;;
57832;SDS011;43667;53.036;6.740;2023-01-29T14:59:10;57.47;;;39.53;;
57832;SDS011;43667;53.036;6.740;2023-01-29T15:01:51;56.25;;;38.75;;
57832;SDS011;43667;53.036;6.740;2023-01-29T15:04:34;58.15;;;39.72;;
57832;SDS011;43667;53.036;6.740;2023-01-29T15:09:47;59.58;;;39.20;;
57832;SDS011;43667;53.036;6.740;2023-01-29T15:17:54;60.78;;;41.70;;
57832;SDS011;43667;53.036;6.740;2023-01-29T15:20:43;62.58;;;42.33;;
57832;SDS011;43667;53.036;6.740;2023-01-29T15:23:28;66.35;;;42.85;;
57832;SDS011;43667;53.036;6.740;2023-01-29T15:25:56;65.63;;;42.60;;
57832;SDS011;43667;53.036;6.740;2023-01-29T15:28:27;64.80;;;43.65;;
57832;SDS011;43667;53.036;6.740;2023-01-29T15:30:55;64.43;;;43.17;;
57832;SDS011;43667;53.036;6.740;2023-01-29T15:33:23;64.80;;;44.50;;
57832;SDS011;43667;53.036;6.740;2023-01-29T15:35:53;64.38;;;43.38;;
57832;SDS011;43667;53.036;6.740;2023-01-29T15:38:22;71.22;;;46.10;;
57832;SDS011;43667;53.036;6.740;2023-01-29T15:40:57;66.22;;;44.42;;
57832;SDS011;43667;53.036;6.740;2023-01-29T15:43:41;56.80;;;40.33;;
57832;SDS011;43667;53.036;6.740;2023-01-29T15:46:10;64.15;;;43.72;;
57832;SDS011;43667;53.036;6.740;2023-01-29T15:48:46;65.18;;;45.67;;
57832;SDS011;43667;53.036;6.740;2023-01-29T15:51:17;64.20;;;45.83;;
57832;SDS011;43667;53.036;6.740;2023-01-29T15:53:49;66.85;;;46.20;;
57832;SDS011;43667;53.036;6.740;2023-01-29T15:56:18;66.15;;;45.53;;
57832;SDS011;43667;53.036;6.740;2023-01-29T15:58:48;72.80;;;48.38;;
57832;SDS011;43667;53.036;6.740;2023-01-29T16:01:15;66.72;;;45.33;;
57832;SDS011;43667;53.036;6.740;2023-01-29T16:03:41;65.93;;;44.58;;
57832;SDS011;43667;53.036;6.740;2023-01-29T16:06:07;64.63;;;45.03;;
57832;SDS011;43667;53.036;6.740;2023-01-29T16:08:33;65.22;;;45.40;;
57832;SDS011;43667;53.036;6.740;2023-01-29T16:11:01;69.57;;;44.47;;
57832;SDS011;43667;53.036;6.740;2023-01-29T16:13:29;68.22;;;47.05;;
57832;SDS011;43667;53.036;6.740;2023-01-29T16:16:13;61.22;;;43.85;;
57832;SDS011;43667;53.036;6.740;2023-01-29T16:18:41;61.80;;;43.95;;
57832;SDS011;43667;53.036;6.740;2023-01-29T16:21:29;72.70;;;46.83;;
57832;SDS011;43667;53.036;6.740;2023-01-29T16:24:00;63.47;;;44.80;;
57832;SDS011;43667;53.036;6.740;2023-01-29T16:26:32;72.85;;;47.65;;
57832;SDS011;43667;53.036;6.740;2023-01-29T16:29:04;61.85;;;44.05;;
57832;SDS011;43667;53.036;6.740;2023-01-29T16:31:32;65.82;;;45.05;;
57832;SDS011;43667;53.036;6.740;2023-01-29T16:34:04;62.22;;;42.85;;
57832;SDS011;43667;53.036;6.740;2023-01-29T16:36:32;56.35;;;42.22;;
57832;SDS011;43667;53.036;6.740;2023-01-29T16:39:03;59.20;;;41.60;;
57832;SDS011;43667;53.036;6.740;2023-01-29T16:41:37;59.85;;;44.08;;
57832;SDS011;43667;53.036;6.740;2023-01-29T16:44:48;61.45;;;44.67;;
57832;SDS011;43667;53.036;6.740;2023-01-29T16:46:56;59.95;;;41.95;;
57832;SDS011;43667;53.036;6.740;2023-01-29T16:49:47;60.55;;;40.53;;
57832;SDS011;43667;53.036;6.740;2023-01-29T16:54:49;60.58;;;43.13;;
57832;SDS011;43667;53.036;6.740;2023-01-29T16:57:17;61.65;;;43.70;;
57832;SDS011;43667;53.036;6.740;2023-01-29T16:59:46;63.53;;;43.20;;
57832;SDS011;43667;53.036;6.740;2023-01-29T17:02:24;61.92;;;41.60;;
57832;SDS011;43667;53.036;6.740;2023-01-29T17:04:57;56.63;;;42.05;;
57832;SDS011;43667;53.036;6.740;2023-01-29T17:07:27;55.58;;;41.10;;
57832;SDS011;43667;53.036;6.740;2023-01-29T17:09:54;63.17;;;44.42;;
57832;SDS011;43667;53.036;6.740;2023-01-29T17:12:23;58.78;;;41.42;;
57832;SDS011;43667;53.036;6.740;2023-01-29T17:15:01;62.53;;;44.40;;
57832;SDS011;43667;53.036;6.740;2023-01-29T17:17:33;55.13;;;41.38;;
57832;SDS011;43667;53.036;6.740;2023-01-29T17:20:10;57.42;;;41.95;;
57832;SDS011;43667;53.036;6.740;2023-01-29T17:22:38;58.10;;;41.55;;
57832;SDS011;43667;53.036;6.740;2023-01-29T17:25:04;59.20;;;42.95;;
57832;SDS011;43667;53.036;6.740;2023-01-29T17:27:30;57.17;;;39.55;;
57832;SDS011;43667;53.036;6.740;2023-01-29T17:29:55;55.40;;;39.90;;
57832;SDS011;43667;53.036;6.740;2023-01-29T17:32:23;54.70;;;40.58;;
57832;SDS011;43667;53.036;6.740;2023-01-29T17:34:49;55.50;;;39.78;;
57832;SDS011;43667;53.036;6.740;2023-01-29T17:37:14;53.90;;;40.80;;
57832;SDS011;43667;53.036;6.740;2023-01-29T17:39:43;52.83;;;37.55;;
57832;SDS011;43667;53.036;6.740;2023-01-29T17:42:12;52.60;;;38.75;;